createdAt,value
2018-07-11T00:00:29.661Z,3.63
2018-07-11T00:01:33.122Z,7.93
2018-07-11T00:02:36.505Z,6.30
2018-07-11T00:03:44.618Z,10.00
2018-07-11T00:04:48.086Z,4.13
2018-07-11T00:05:51.534Z,10.03
2018-07-11T00:06:54.985Z,5.47
2018-07-11T00:07:58.393Z,10.10
2018-07-11T00:09:01.848Z,5.97
2018-07-11T00:10:05.280Z,5.73
2018-07-11T00:11:09.064Z,7.27
2018-07-11T00:12:12.497Z,6.20
2018-07-11T00:13:15.950Z,8.97
2018-07-11T00:14:19.392Z,5.83
2018-07-11T00:15:22.964Z,3.50
2018-07-11T00:16:26.365Z,9.23
2018-07-11T00:17:29.809Z,4.60
2018-07-11T00:18:33.546Z,9.30
2018-07-11T00:19:36.994Z,7.23
2018-07-11T00:20:40.517Z,4.80
2018-07-11T00:21:44.003Z,6.10
2018-07-11T00:22:47.510Z,8.63
2018-07-11T00:23:50.987Z,8.30
2018-07-11T00:24:54.454Z,10.30
2018-07-11T00:25:57.919Z,4.00
2018-07-11T00:27:01.368Z,7.30
2018-07-11T00:28:04.903Z,3.40
2018-07-11T00:29:08.380Z,3.37
2018-07-11T00:30:11.851Z,9.33
2018-07-11T00:31:15.309Z,4.50
2018-07-11T00:32:18.819Z,6.07
2018-07-11T00:33:22.467Z,11.40
2018-07-11T00:34:26.305Z,7.07
2018-07-11T00:35:29.787Z,5.03
2018-07-11T00:36:33.419Z,12.77
2018-07-11T00:37:36.901Z,7.00
2018-07-11T00:38:40.390Z,3.80
2018-07-11T00:39:44.082Z,5.63
2018-07-11T00:40:47.651Z,5.50
2018-07-11T00:41:51.178Z,5.10
2018-07-11T00:42:54.626Z,2.93
2018-07-11T00:43:58.399Z,11.13
2018-07-11T00:45:01.918Z,4.63
2018-07-11T00:46:06.080Z,7.90
2018-07-11T00:47:09.636Z,14.27
2018-07-11T00:48:13.149Z,7.40
2018-07-11T00:49:16.621Z,9.87
2018-07-11T00:50:20.294Z,11.73
2018-07-11T00:51:23.753Z,11.00
2018-07-11T00:52:27.256Z,5.90
2018-07-11T00:53:32.237Z,4.90
2018-07-11T00:54:35.738Z,3.47
2018-07-11T00:55:39.196Z,4.93
2018-07-11T00:56:42.816Z,6.10
2018-07-11T00:57:46.328Z,9.50
2018-07-11T00:59:29.978Z,7.47
2018-07-11T01:00:33.430Z,5.00
2018-07-11T01:01:37.386Z,6.63
2018-07-11T01:02:40.976Z,6.90
2018-07-11T01:03:54.247Z,3.10
2018-07-11T01:04:57.945Z,4.07
2018-07-11T01:06:01.375Z,14.30
2018-07-11T01:07:06.369Z,4.03
2018-07-11T01:08:09.867Z,8.60
2018-07-11T01:09:13.318Z,4.30
2018-07-11T01:10:16.804Z,5.03
2018-07-11T01:11:20.368Z,10.00
2018-07-11T01:12:23.884Z,7.77
2018-07-11T01:13:27.372Z,8.10
2018-07-11T01:14:30.848Z,3.80
2018-07-11T01:15:34.325Z,4.10
2018-07-11T01:16:37.966Z,5.37
2018-07-11T01:17:47.417Z,5.87
2018-07-11T01:19:03.612Z,9.03
2018-07-11T01:20:07.082Z,4.67
2018-07-11T01:21:10.555Z,7.70
2018-07-11T01:22:14.027Z,5.87
2018-07-11T01:23:17.429Z,3.43
2018-07-11T01:24:20.829Z,4.87
2018-07-11T01:25:24.257Z,5.73
2018-07-11T01:26:42.284Z,10.63
2018-07-11T01:27:45.777Z,3.23
2018-07-11T01:28:49.214Z,11.50
2018-07-11T01:29:52.628Z,5.43
2018-07-11T01:30:56.032Z,6.10
2018-07-11T01:31:59.594Z,3.20
2018-07-11T01:33:03.315Z,8.17
2018-07-11T01:34:06.748Z,3.10
2018-07-11T01:35:10.224Z,7.63
2018-07-11T01:36:13.697Z,4.40
2018-07-11T01:37:17.112Z,7.97
2018-07-11T01:38:20.521Z,6.23
2018-07-11T01:39:24.037Z,6.60
2018-07-11T01:40:27.656Z,5.87
2018-07-11T01:41:31.095Z,7.10
2018-07-11T01:42:34.535Z,7.37
2018-07-11T01:43:37.963Z,7.40
2018-07-11T01:44:41.414Z,10.77
2018-07-11T01:45:44.900Z,7.80
2018-07-11T01:46:49.721Z,6.40
2018-07-11T01:47:53.212Z,8.13
2018-07-11T01:48:56.694Z,4.90
2018-07-11T01:50:00.137Z,4.83
2018-07-11T01:51:03.892Z,4.80
2018-07-11T01:52:18.512Z,3.43
2018-07-11T01:53:21.960Z,6.93
2018-07-11T01:54:25.857Z,6.43
2018-07-11T01:55:29.764Z,2.30
2018-07-11T01:56:33.219Z,13.30
2018-07-11T01:57:36.712Z,4.47
2018-07-11T01:58:41.983Z,3.87
2018-07-11T01:59:45.460Z,4.20
2018-07-11T02:00:48.923Z,5.27
2018-07-11T02:01:52.397Z,9.67
2018-07-11T02:02:56.125Z,5.07
2018-07-11T02:03:59.737Z,4.00
2018-07-11T02:05:03.211Z,29.47
2018-07-11T02:06:06.672Z,5.90
2018-07-11T02:07:11.197Z,5.80
2018-07-11T02:08:14.661Z,5.83
2018-07-11T02:09:18.299Z,3.00
2018-07-11T02:10:21.811Z,8.57
2018-07-11T02:11:25.287Z,3.50
2018-07-11T02:12:28.791Z,5.90
2018-07-11T02:13:32.284Z,3.57
2018-07-11T02:14:36.940Z,3.80
2018-07-11T02:15:40.390Z,5.63
2018-07-11T02:16:44.328Z,6.80
2018-07-11T02:17:47.816Z,10.30
2018-07-11T02:18:51.327Z,3.67
2018-07-11T02:19:54.782Z,12.30
2018-07-11T02:20:59.171Z,4.80
2018-07-11T02:22:02.672Z,9.73
2018-07-11T02:23:06.139Z,6.50
2018-07-11T02:24:09.658Z,5.33
2018-07-11T02:25:15.333Z,5.77
2018-07-11T02:26:19.120Z,3.40
2018-07-11T02:27:22.555Z,3.57
2018-07-11T02:28:26.062Z,2.90
2018-07-11T02:29:29.547Z,3.20
2018-07-11T02:30:33.199Z,3.30
2018-07-11T02:31:36.652Z,3.73
2018-07-11T02:32:40.137Z,7.50
2018-07-11T02:33:43.722Z,4.67
2018-07-11T02:34:47.222Z,5.53
2018-07-11T02:35:50.812Z,8.53
2018-07-11T02:36:54.296Z,8.10
2018-07-11T02:37:57.779Z,18.07
2018-07-11T02:39:01.253Z,2.47
2018-07-11T02:40:04.749Z,4.73
2018-07-11T02:41:08.185Z,7.03
2018-07-11T02:42:11.661Z,6.03
2018-07-11T02:43:15.275Z,6.90
2018-07-11T02:44:18.788Z,7.70
2018-07-11T02:45:22.294Z,10.43
2018-07-11T02:46:30.952Z,5.07
2018-07-11T02:47:39.764Z,9.57
2018-07-11T02:48:43.243Z,3.50
2018-07-11T02:49:47.601Z,3.17
2018-07-11T02:50:51.239Z,5.00
2018-07-11T02:51:54.738Z,6.83
2018-07-11T02:52:58.198Z,9.07
2018-07-11T02:54:01.633Z,5.70
2018-07-11T02:55:05.304Z,4.97
2018-07-11T02:56:08.756Z,6.33
2018-07-11T02:57:12.170Z,3.67
2018-07-11T02:58:15.592Z,3.20
2018-07-11T02:59:19.033Z,4.87
2018-07-11T03:00:22.480Z,3.60
2018-07-11T03:01:25.945Z,3.00
2018-07-11T03:02:29.404Z,6.00
2018-07-11T03:03:33.240Z,6.60
2018-07-11T03:04:36.758Z,1.83
2018-07-11T03:05:40.509Z,5.60
2018-07-11T03:06:44.005Z,9.70
2018-07-11T03:07:47.457Z,7.63
2018-07-11T03:08:50.939Z,6.40
2018-07-11T03:09:54.426Z,3.60
2018-07-11T03:10:57.884Z,7.50
2018-07-11T03:12:01.323Z,9.40
2018-07-11T03:13:04.771Z,7.90
2018-07-11T03:14:08.244Z,9.33
2018-07-11T03:15:11.695Z,5.90
2018-07-11T03:16:15.106Z,4.33
2018-07-11T03:17:18.549Z,4.77
2018-07-11T03:18:22.087Z,6.40
2018-07-11T03:19:25.527Z,10.50
2018-07-11T03:20:29.018Z,9.27
2018-07-11T03:21:32.478Z,4.10
2018-07-11T03:22:35.968Z,4.77
2018-07-11T03:23:39.428Z,4.40
2018-07-11T03:24:43.181Z,6.20
2018-07-11T03:25:46.644Z,5.00
2018-07-11T03:26:50.145Z,5.13
2018-07-11T03:27:53.598Z,8.40
2018-07-11T03:28:57.048Z,4.90
2018-07-11T03:30:00.430Z,3.57
2018-07-11T03:31:03.923Z,8.47
2018-07-11T03:32:07.516Z,5.33
2018-07-11T03:33:10.928Z,5.17
2018-07-11T03:34:14.369Z,4.60
2018-07-11T03:35:17.788Z,4.10
2018-07-11T03:36:21.230Z,5.17
2018-07-11T03:37:24.784Z,4.07
2018-07-11T03:38:28.194Z,6.67
2018-07-11T03:39:31.654Z,16.43
2018-07-11T03:40:35.154Z,4.07
2018-07-11T03:41:38.580Z,7.23
2018-07-11T03:42:42.084Z,3.90
2018-07-11T03:43:45.565Z,6.30
2018-07-11T03:44:49.039Z,8.53
2018-07-11T03:45:52.489Z,8.97
2018-07-11T03:46:56.094Z,6.63
2018-07-11T03:47:59.593Z,8.30
2018-07-11T03:49:03.055Z,5.63
2018-07-11T03:50:06.525Z,3.10
2018-07-11T03:51:10.015Z,11.10
2018-07-11T03:52:13.512Z,7.83
2018-07-11T03:53:16.928Z,4.40
2018-07-11T03:54:20.367Z,3.63
2018-07-11T03:55:22.778Z,10.63
2018-07-11T03:56:26.208Z,3.30
2018-07-11T03:57:29.666Z,10.03
2018-07-11T03:58:33.103Z,7.10
2018-07-11T03:59:36.559Z,4.37
2018-07-11T04:00:39.997Z,6.90
2018-07-11T04:01:43.411Z,8.23
2018-07-11T04:02:46.838Z,6.53
2018-07-11T04:03:50.221Z,7.40
2018-07-11T04:04:53.679Z,3.63
2018-07-11T04:05:57.126Z,5.50
2018-07-11T04:07:00.692Z,4.93
2018-07-11T04:08:04.611Z,6.33
2018-07-11T04:09:08.027Z,3.80
2018-07-11T04:10:11.424Z,3.13
2018-07-11T04:11:14.839Z,4.50
2018-07-11T04:12:18.236Z,2.90
2018-07-11T04:13:21.644Z,5.57
2018-07-11T04:14:25.060Z,5.57
2018-07-11T04:15:28.690Z,3.97
2018-07-11T04:16:32.253Z,5.03
2018-07-11T04:17:35.652Z,3.53
2018-07-11T04:18:39.043Z,4.10
2018-07-11T04:19:42.589Z,4.17
2018-07-11T04:20:46.026Z,2.27
2018-07-11T04:21:49.432Z,3.97
2018-07-11T04:22:53.026Z,7.73
2018-07-11T04:23:56.447Z,4.73
2018-07-11T04:24:59.886Z,6.93
2018-07-11T04:26:03.342Z,3.03
2018-07-11T04:27:06.800Z,4.40
2018-07-11T04:28:10.287Z,3.27
2018-07-11T04:29:13.846Z,6.10
2018-07-11T04:30:17.314Z,3.43
2018-07-11T04:31:20.716Z,2.60
2018-07-11T04:32:24.258Z,3.47
2018-07-11T04:33:27.760Z,10.43
2018-07-11T04:34:31.303Z,4.33
2018-07-11T04:35:34.806Z,1.73
2018-07-11T04:36:38.356Z,3.40
2018-07-11T04:37:41.784Z,1.83
2018-07-11T04:38:45.397Z,3.13
2018-07-11T04:39:49.114Z,7.77
2018-07-11T04:40:52.576Z,1.40
2018-07-11T04:41:56.005Z,1.67
2018-07-11T04:42:59.892Z,2.90
2018-07-11T04:44:03.423Z,2.70
2018-07-11T04:45:06.873Z,7.40
2018-07-11T04:46:10.387Z,2.73
2018-07-11T04:47:13.877Z,3.03
2018-07-11T04:48:19.795Z,5.70
2018-07-11T04:49:23.256Z,5.47
2018-07-11T04:50:26.769Z,5.63
2018-07-11T04:51:30.376Z,3.70
2018-07-11T04:52:34.028Z,5.23
2018-07-11T04:53:37.474Z,3.10
2018-07-11T04:54:40.967Z,2.70
2018-07-11T04:55:44.428Z,6.17
2018-07-11T04:56:47.882Z,3.63
2018-07-11T04:57:51.355Z,5.67
2018-07-11T04:58:54.837Z,2.47
2018-07-11T04:59:58.198Z,3.37
2018-07-11T05:01:01.784Z,2.30
2018-07-11T05:02:05.302Z,3.17
2018-07-11T05:03:08.737Z,3.17
2018-07-11T05:04:12.180Z,2.93
2018-07-11T05:05:15.602Z,6.00
2018-07-11T05:06:19.041Z,3.37
2018-07-11T05:07:22.450Z,1.87
2018-07-11T05:08:26.361Z,5.10
2018-07-11T05:09:28.766Z,3.17
2018-07-11T05:10:32.164Z,4.20
2018-07-11T05:11:35.525Z,3.80
2018-07-11T05:12:38.928Z,2.37
2018-07-11T05:13:42.373Z,5.80
2018-07-11T05:14:45.825Z,3.50
2018-07-11T05:15:49.280Z,2.40
2018-07-11T05:16:52.683Z,1.63
2018-07-11T05:17:56.198Z,2.70
2018-07-11T05:18:59.642Z,4.33
2018-07-11T05:20:03.108Z,3.20
2018-07-11T05:21:06.669Z,2.70
2018-07-11T05:22:10.073Z,4.00
2018-07-11T05:23:13.542Z,3.30
2018-07-11T05:24:16.930Z,4.50
2018-07-11T05:25:20.356Z,5.57
2018-07-11T05:26:23.798Z,3.30
2018-07-11T05:27:27.248Z,2.30
2018-07-11T05:28:30.679Z,3.00
2018-07-11T05:29:34.126Z,2.10
2018-07-11T05:30:37.549Z,3.60
2018-07-11T05:31:40.960Z,4.60
2018-07-11T05:32:44.371Z,1.80
2018-07-11T05:33:47.803Z,4.90
2018-07-11T05:34:51.251Z,4.30
2018-07-11T05:35:54.678Z,9.83
2018-07-11T05:36:58.080Z,2.00
2018-07-11T05:38:01.493Z,2.53
2018-07-11T05:39:05.143Z,2.20
2018-07-11T05:40:08.852Z,2.20
2018-07-11T05:41:12.275Z,4.17
2018-07-11T05:42:15.719Z,4.73
2018-07-11T05:43:19.112Z,4.07
2018-07-11T05:44:22.504Z,3.60
2018-07-11T05:45:26.171Z,6.47
2018-07-11T05:46:29.602Z,3.93
2018-07-11T05:47:33.094Z,2.53
2018-07-11T05:48:36.560Z,2.80
2018-07-11T05:49:39.960Z,4.23
2018-07-11T05:50:43.372Z,2.83
2018-07-11T05:51:46.827Z,3.67
2018-07-11T05:52:50.233Z,8.53
2018-07-11T05:53:53.719Z,4.00
2018-07-11T05:54:57.158Z,3.80
2018-07-11T05:56:00.607Z,3.07
2018-07-11T05:57:04.036Z,2.33
2018-07-11T05:58:07.529Z,2.27
2018-07-11T05:59:11.048Z,3.63
2018-07-11T06:00:14.516Z,4.53
2018-07-11T06:01:17.964Z,4.40
2018-07-11T06:02:21.375Z,2.57
2018-07-11T06:03:24.860Z,3.33
2018-07-11T06:04:28.225Z,4.10
2018-07-11T06:05:31.688Z,7.13
2018-07-11T06:06:36.432Z,4.30
2018-07-11T06:07:39.849Z,4.37
2018-07-11T06:08:43.276Z,4.10
2018-07-11T06:09:46.704Z,28.53
2018-07-11T06:10:50.146Z,28.20
2018-07-11T06:11:53.666Z,43.13
2018-07-11T06:12:57.065Z,25.00
2018-07-11T06:14:00.533Z,40.63
2018-07-11T06:15:04.333Z,31.77
2018-07-11T06:16:08.459Z,32.03
2018-07-11T06:17:12.209Z,29.10
2018-07-11T06:18:15.769Z,39.20
2018-07-11T06:19:19.202Z,26.77
2018-07-11T06:20:22.624Z,28.07
2018-07-11T06:21:26.895Z,24.20
2018-07-11T06:22:30.320Z,22.17
2018-07-11T06:23:33.876Z,23.50
2018-07-11T06:24:37.289Z,24.33
2018-07-11T06:25:40.681Z,20.80
2018-07-11T06:26:44.072Z,30.20
2018-07-11T06:27:47.521Z,24.33
2018-07-11T06:28:50.918Z,24.70
2018-07-11T06:29:54.384Z,32.50
2018-07-11T06:30:57.811Z,34.07
2018-07-11T06:32:01.272Z,23.47
2018-07-11T06:33:04.862Z,35.17
2018-07-11T06:34:08.322Z,24.30
2018-07-11T06:35:11.776Z,31.50
2018-07-11T06:36:15.358Z,23.10
2018-07-11T06:37:18.761Z,24.33
2018-07-11T06:38:22.536Z,22.30
2018-07-11T06:39:26.046Z,25.27
2018-07-11T06:40:29.621Z,21.73
2018-07-11T06:41:33.102Z,23.27
2018-07-11T06:42:36.494Z,23.07
2018-07-11T06:43:39.930Z,23.00
2018-07-11T06:44:43.392Z,26.23
2018-07-11T06:45:47.171Z,21.60
2018-07-11T06:46:50.585Z,23.07
2018-07-11T06:47:54.054Z,22.17
2018-07-11T06:48:57.468Z,24.40
2018-07-11T06:50:01.075Z,27.03
2018-07-11T06:51:04.514Z,23.57
2018-07-11T06:52:08.024Z,23.47
2018-07-11T06:53:11.456Z,22.23
2018-07-11T06:54:14.968Z,20.60
2018-07-11T06:55:18.372Z,20.43
2018-07-11T06:56:21.971Z,19.47
2018-07-11T06:57:25.394Z,24.60
2018-07-11T06:58:28.842Z,18.33
2018-07-11T06:59:32.461Z,22.07
2018-07-11T07:00:36.337Z,30.23
2018-07-11T07:01:39.756Z,28.73
2018-07-11T07:02:43.186Z,19.07
2018-07-11T07:03:46.612Z,21.77
2018-07-11T07:04:50.034Z,22.60
2018-07-11T07:05:53.448Z,16.00
2018-07-11T07:06:56.963Z,17.20
2018-07-11T07:08:00.380Z,17.33
2018-07-11T07:09:05.274Z,16.80
2018-07-11T07:10:08.714Z,18.70
2018-07-11T07:11:12.184Z,17.07
2018-07-11T07:12:16.028Z,23.80
2018-07-11T07:13:19.464Z,14.70
2018-07-11T07:14:22.972Z,20.70
2018-07-11T07:15:26.404Z,16.23
2018-07-11T07:16:29.835Z,16.23
2018-07-11T07:17:33.327Z,16.50
2018-07-11T07:18:36.758Z,14.53
2018-07-11T07:19:40.599Z,16.20
2018-07-11T07:20:44.299Z,13.70
2018-07-11T07:21:47.749Z,14.23
2018-07-11T07:22:51.276Z,19.90
2018-07-11T07:23:54.857Z,13.80
2018-07-11T07:24:58.440Z,15.53
2018-07-11T07:26:01.888Z,22.33
2018-07-11T07:27:05.657Z,12.77
2018-07-11T07:28:09.096Z,13.20
2018-07-11T07:29:12.870Z,14.83
2018-07-11T07:30:16.365Z,13.23
2018-07-11T07:31:19.822Z,19.77
2018-07-11T07:32:24.030Z,12.27
2018-07-11T07:33:27.533Z,12.97
2018-07-11T07:34:31.185Z,11.10
2018-07-11T07:35:34.691Z,12.10
2018-07-11T07:36:38.209Z,10.73
2018-07-11T07:37:41.804Z,16.13
2018-07-11T07:38:45.670Z,15.50
2018-07-11T07:39:49.116Z,13.50
2018-07-11T07:40:52.498Z,16.57
2018-07-11T07:41:56.011Z,11.87
2018-07-11T07:42:59.623Z,13.13
2018-07-11T07:44:04.110Z,14.17
2018-07-11T07:45:07.961Z,11.73
2018-07-11T07:46:11.443Z,13.50
2018-07-11T07:47:25.228Z,15.83
2018-07-11T07:48:28.708Z,19.70
2018-07-11T07:49:33.141Z,15.80
2018-07-11T07:50:36.576Z,11.17
2018-07-11T07:51:40.070Z,9.93
2018-07-11T07:52:44.683Z,9.43
2018-07-11T07:53:50.458Z,14.20
2018-07-11T07:54:53.948Z,16.07
2018-07-11T07:55:57.467Z,11.80
2018-07-11T07:57:35.353Z,16.33
2018-07-11T08:00:06.758Z,11.60
2018-07-11T08:01:10.254Z,14.40
2018-07-11T08:02:13.746Z,14.23
2018-07-11T08:03:17.239Z,22.50
2018-07-11T08:04:20.771Z,17.33
2018-07-11T08:05:24.237Z,18.83
2018-07-11T08:06:27.736Z,17.33
2018-07-11T08:07:31.228Z,20.13
2018-07-11T08:08:34.788Z,23.63
2018-07-11T08:09:38.324Z,28.70
2018-07-11T08:10:41.781Z,27.87
2018-07-11T08:11:45.208Z,27.07
2018-07-11T08:12:48.651Z,23.37
2018-07-11T08:13:56.703Z,22.20
2018-07-11T08:15:00.114Z,21.13
2018-07-11T08:16:03.539Z,18.47
2018-07-11T08:17:06.996Z,20.67
2018-07-11T08:18:10.433Z,22.63
2018-07-11T08:19:13.884Z,18.77
2018-07-11T08:20:17.306Z,17.07
2018-07-11T08:21:20.790Z,17.50
2018-07-11T08:23:38.350Z,20.93
2018-07-11T08:24:53.415Z,19.70
2018-07-11T08:26:08.068Z,19.47
2018-07-11T08:28:23.734Z,18.03
2018-07-11T08:29:41.098Z,17.73
2018-07-11T08:30:57.520Z,30.07
2018-07-11T08:32:12.161Z,19.07
2018-07-11T08:35:33.676Z,17.50
2018-07-11T08:37:15.775Z,18.37
2018-07-11T08:38:45.326Z,14.80
2018-07-11T08:40:21.779Z,20.40
2018-07-11T08:41:38.143Z,15.90
2018-07-11T08:42:54.924Z,18.43
2018-07-11T08:46:14.069Z,16.97
2018-07-11T08:47:32.584Z,17.60
2018-07-11T08:48:48.154Z,15.70
2018-07-11T08:52:05.984Z,17.33
2018-07-11T08:53:22.926Z,16.40
2018-07-11T08:54:57.487Z,15.70
2018-07-11T08:56:12.514Z,11.40
2018-07-11T08:59:36.165Z,14.40
2018-07-11T09:01:05.117Z,12.17
2018-07-11T09:02:39.375Z,11.00
2018-07-11T09:05:56.757Z,11.80
2018-07-11T09:08:35.726Z,13.23
2018-07-11T09:09:54.748Z,12.60
2018-07-11T09:11:04.688Z,12.03
2018-07-11T09:14:23.338Z,9.90
2018-07-11T09:15:38.657Z,9.73
2018-07-11T09:17:51.420Z,8.67
2018-07-11T09:19:09.234Z,9.60
2018-07-11T09:21:30.588Z,7.07
2018-07-11T09:24:51.414Z,8.53
2018-07-11T09:25:54.809Z,9.00
2018-07-11T09:26:58.218Z,7.43
2018-07-11T09:28:01.639Z,9.53
2018-07-11T09:29:05.162Z,7.20
2018-07-11T09:30:08.609Z,9.77
2018-07-11T09:31:12.057Z,6.10
2018-07-11T09:32:15.820Z,5.97
2018-07-11T09:33:19.434Z,7.20
2018-07-11T09:34:22.966Z,8.00
2018-07-11T09:35:26.407Z,8.93
2018-07-11T09:36:29.819Z,8.60
2018-07-11T09:37:33.320Z,8.90
2018-07-11T09:38:36.657Z,7.53
2018-07-11T09:39:40.568Z,5.53
2018-07-11T09:40:44.043Z,7.13
2018-07-11T09:41:47.513Z,8.13
2018-07-11T09:42:50.996Z,7.97
2018-07-11T09:43:54.455Z,7.93
2018-07-11T09:44:58.216Z,6.27
2018-07-11T09:46:01.721Z,6.53
2018-07-11T09:47:10.393Z,9.50
2018-07-11T09:48:13.914Z,11.93
2018-07-11T09:49:17.420Z,14.10
2018-07-11T09:50:20.891Z,8.43
2018-07-11T09:51:24.348Z,4.90
2018-07-11T09:52:27.782Z,11.13
2018-07-11T09:53:31.235Z,10.77
2018-07-11T09:54:34.750Z,6.43
2018-07-11T09:55:38.347Z,7.50
2018-07-11T09:56:41.821Z,8.60
2018-07-11T09:57:45.362Z,7.67
2018-07-11T09:58:48.854Z,7.67
2018-07-11T09:59:52.478Z,7.03
2018-07-11T10:01:30.670Z,6.43
2018-07-11T10:02:38.003Z,8.10
2018-07-11T10:03:41.480Z,5.40
2018-07-11T10:04:44.965Z,4.97
2018-07-11T10:05:48.485Z,7.87
2018-07-11T10:06:51.984Z,7.10
2018-07-11T10:07:55.386Z,5.03
2018-07-11T10:08:59.858Z,5.10
2018-07-11T10:10:03.336Z,6.07
2018-07-11T10:11:07.023Z,4.90
2018-07-11T10:12:10.438Z,4.47
2018-07-11T10:13:13.850Z,4.80
2018-07-11T10:14:17.296Z,7.47
2018-07-11T10:15:20.726Z,6.23
2018-07-11T10:16:24.126Z,5.60
2018-07-11T10:17:27.585Z,4.80
2018-07-11T10:18:31.000Z,7.27
2018-07-11T10:19:34.472Z,4.70
2018-07-11T10:20:37.879Z,4.83
2018-07-11T10:21:41.317Z,5.90
2018-07-11T10:22:44.819Z,6.43
2018-07-11T10:23:48.321Z,4.20
2018-07-11T10:24:51.742Z,5.13
2018-07-11T10:25:55.323Z,7.83
2018-07-11T10:26:58.829Z,4.33
2018-07-11T10:28:16.121Z,6.10
2018-07-11T10:29:19.513Z,7.90
2018-07-11T10:30:22.982Z,7.60
2018-07-11T10:31:27.269Z,5.10
2018-07-11T10:32:30.830Z,5.77
2018-07-11T10:33:34.455Z,13.23
2018-07-11T10:34:38.152Z,9.53
2018-07-11T10:35:42.051Z,4.17
2018-07-11T10:36:45.486Z,7.70
2018-07-11T10:37:48.919Z,6.00
2018-07-11T10:38:52.368Z,8.00
2018-07-11T10:39:55.788Z,6.50
2018-07-11T10:40:59.284Z,4.57
2018-07-11T10:42:02.981Z,5.20
2018-07-11T10:43:06.548Z,4.50
2018-07-11T10:44:09.974Z,5.93
2018-07-11T10:45:13.392Z,8.00
2018-07-11T10:46:16.851Z,8.50
2018-07-11T10:47:20.332Z,8.70
2018-07-11T10:48:23.722Z,8.63
2018-07-11T10:49:27.198Z,6.93
2018-07-11T10:50:30.810Z,5.33
2018-07-11T10:51:34.533Z,7.07
2018-07-11T10:52:37.994Z,8.03
2018-07-11T10:53:41.446Z,8.10
2018-07-11T10:54:44.855Z,8.77
2018-07-11T10:55:48.275Z,10.03
2018-07-11T10:56:51.779Z,9.33
2018-07-11T10:57:55.224Z,6.93
2018-07-11T10:58:58.625Z,7.53
2018-07-11T11:00:02.142Z,7.87
2018-07-11T11:01:06.073Z,8.30
2018-07-11T11:02:09.205Z,4.57
2018-07-11T11:03:12.620Z,7.00
2018-07-11T11:04:19.424Z,5.00
2018-07-11T11:05:22.933Z,5.43
2018-07-11T11:06:26.369Z,9.23
2018-07-11T11:07:29.808Z,5.03
2018-07-11T11:08:34.000Z,10.70
2018-07-11T11:09:37.485Z,13.50
2018-07-11T11:10:40.884Z,10.53
2018-07-11T11:11:44.295Z,11.60
2018-07-11T11:12:48.114Z,19.40
2018-07-11T11:13:51.848Z,7.60
2018-07-11T11:14:55.292Z,5.90
2018-07-11T11:15:58.731Z,7.50
2018-07-11T11:17:02.179Z,6.30
2018-07-11T11:18:05.610Z,8.70
2018-07-11T11:19:09.036Z,5.53
2018-07-11T11:20:12.443Z,8.00
2018-07-11T11:21:16.157Z,5.90
2018-07-11T11:22:19.556Z,6.83
2018-07-11T11:23:23.105Z,18.10
2018-07-11T11:24:26.502Z,6.67
2018-07-11T11:25:29.900Z,8.50
2018-07-11T11:26:33.943Z,4.93
2018-07-11T11:27:37.499Z,8.20
2018-07-11T11:28:40.988Z,7.00
2018-07-11T11:29:44.406Z,10.30
2018-07-11T11:30:47.880Z,4.97
2018-07-11T11:31:51.409Z,11.20
2018-07-11T11:32:55.876Z,10.30
2018-07-11T11:33:59.996Z,13.17
2018-07-11T11:35:04.600Z,10.73
2018-07-11T11:36:08.091Z,4.63
2018-07-11T11:37:11.514Z,6.17
2018-07-11T11:38:14.985Z,5.97
2018-07-11T11:39:18.578Z,5.90
2018-07-11T11:40:22.071Z,5.93
2018-07-11T11:41:25.541Z,7.33
2018-07-11T11:42:29.106Z,9.43
2018-07-11T11:43:32.397Z,5.60
2018-07-11T11:44:35.883Z,5.40
2018-07-11T11:45:39.300Z,9.37
2018-07-11T11:46:42.760Z,13.70
2018-07-11T11:47:46.164Z,5.97
2018-07-11T11:48:49.638Z,10.60
2018-07-11T11:49:53.300Z,3.50
2018-07-11T11:50:58.064Z,15.63
2018-07-11T11:52:01.506Z,5.10
2018-07-11T11:53:05.189Z,4.70
2018-07-11T11:54:08.562Z,7.33
2018-07-11T11:55:12.021Z,7.40
2018-07-11T11:56:15.463Z,5.57
2018-07-11T11:57:18.925Z,4.80
2018-07-11T11:58:23.154Z,10.80
2018-07-11T11:59:26.745Z,7.50
2018-07-11T12:00:30.279Z,6.13
2018-07-11T12:01:33.684Z,6.50
2018-07-11T12:02:37.128Z,5.60
2018-07-11T12:03:40.521Z,4.57
2018-07-11T12:04:43.917Z,4.73
2018-07-11T12:05:47.346Z,6.90
2018-07-11T12:06:50.766Z,5.47
2018-07-11T12:07:54.185Z,12.30
2018-07-11T12:08:57.810Z,5.87
2018-07-11T12:10:01.769Z,9.43
2018-07-11T12:11:05.720Z,6.53
2018-07-11T12:12:09.133Z,24.93
2018-07-11T12:13:12.521Z,11.70
2018-07-11T12:14:17.002Z,5.63
2018-07-11T12:15:20.728Z,4.87
2018-07-11T12:16:24.718Z,3.23
2018-07-11T12:17:28.127Z,6.33
2018-07-11T12:18:31.522Z,8.37
2018-07-11T12:19:35.968Z,5.53
2018-07-11T12:20:39.568Z,3.63
2018-07-11T12:21:43.079Z,6.80
2018-07-11T12:22:46.739Z,10.40
2018-07-11T12:23:50.248Z,4.47
2018-07-11T12:24:54.194Z,4.50
2018-07-11T12:26:05.177Z,4.60
2018-07-11T12:27:10.239Z,5.63
2018-07-11T12:28:13.811Z,5.93
2018-07-11T12:29:17.362Z,10.57
2018-07-11T12:30:22.373Z,6.33
2018-07-11T12:31:26.550Z,5.00
2018-07-11T12:32:31.412Z,6.67
2018-07-11T12:33:35.910Z,3.60
2018-07-11T12:34:39.325Z,4.00
2018-07-11T12:35:53.811Z,7.90
2018-07-11T12:36:57.656Z,5.97
2018-07-11T12:38:01.666Z,3.40
2018-07-11T12:39:05.118Z,4.83
2018-07-11T12:40:08.525Z,5.27
2018-07-11T12:41:11.978Z,5.33
2018-07-11T12:42:15.549Z,4.30
2018-07-11T12:43:19.036Z,5.43
2018-07-11T12:44:22.519Z,4.27
2018-07-11T12:45:26.231Z,6.30
2018-07-11T12:46:29.674Z,3.13
2018-07-11T12:47:38.329Z,6.03
2018-07-11T12:48:47.269Z,3.27
2018-07-11T12:49:50.786Z,8.70
2018-07-11T12:50:54.336Z,3.87
2018-07-11T12:51:57.799Z,6.60
2018-07-11T12:53:01.852Z,4.70
2018-07-11T12:54:05.580Z,3.93
2018-07-11T12:55:09.096Z,4.40
2018-07-11T12:56:12.701Z,5.57
2018-07-11T12:57:16.133Z,6.07
2018-07-11T12:58:20.082Z,6.43
2018-07-11T12:59:25.205Z,5.47
2018-07-11T13:00:28.672Z,5.50
2018-07-11T13:01:32.129Z,4.03
2018-07-11T13:02:35.568Z,4.83
2018-07-11T13:03:39.049Z,3.50
2018-07-11T13:04:42.659Z,3.50
2018-07-11T13:05:46.256Z,4.33
2018-07-11T13:06:49.705Z,2.43
2018-07-11T13:07:53.190Z,3.93
2018-07-11T13:08:56.815Z,5.20
2018-07-11T13:10:00.805Z,3.80
2018-07-11T13:11:04.233Z,4.97
2018-07-11T13:12:07.808Z,5.20
2018-07-11T13:13:11.621Z,3.03
2018-07-11T13:14:15.077Z,3.57
2018-07-11T13:15:18.639Z,3.20
2018-07-11T13:16:22.251Z,7.37
2018-07-11T13:17:25.858Z,2.80
2018-07-11T13:18:29.282Z,3.30
2018-07-11T13:19:33.066Z,6.30
2018-07-11T13:20:36.508Z,9.07
2018-07-11T13:21:39.966Z,8.00
2018-07-11T13:22:43.454Z,8.73
2018-07-11T13:23:47.046Z,7.80
2018-07-11T13:24:50.454Z,5.53
2018-07-11T13:25:53.923Z,8.20
2018-07-11T13:26:57.345Z,8.93
2018-07-11T13:28:00.787Z,4.20
2018-07-11T13:29:04.243Z,9.73
2018-07-11T13:30:07.744Z,11.50
2018-07-11T13:31:11.217Z,12.53
2018-07-11T13:32:14.772Z,4.87
2018-07-11T13:33:19.068Z,5.03
2018-07-11T13:34:22.593Z,6.93
2018-07-11T13:35:26.067Z,7.00
2018-07-11T13:36:29.522Z,8.80
2018-07-11T13:37:32.968Z,6.87
2018-07-11T13:38:36.480Z,5.50
2018-07-11T13:39:40.013Z,6.40
2018-07-11T13:40:44.097Z,7.27
2018-07-11T13:41:48.268Z,5.97
2018-07-11T13:42:51.837Z,6.40
2018-07-11T13:43:55.315Z,6.40
2018-07-11T13:44:58.703Z,6.63
2018-07-11T13:46:02.182Z,8.43
2018-07-11T13:47:11.010Z,7.80
2018-07-11T13:48:14.547Z,5.20
2018-07-11T13:49:17.948Z,5.10
2018-07-11T13:50:21.438Z,7.80
2018-07-11T13:51:24.938Z,5.80
2018-07-11T13:52:28.439Z,6.83
2018-07-11T13:53:31.865Z,6.20
2018-07-11T13:54:35.435Z,6.60
2018-07-11T13:55:39.160Z,6.77
2018-07-11T13:56:42.652Z,3.30
2018-07-11T13:57:46.184Z,5.77
2018-07-11T13:58:49.653Z,4.50
2018-07-11T13:59:53.092Z,5.90
2018-07-11T14:00:56.977Z,6.67
2018-07-11T14:02:00.498Z,6.20
2018-07-11T14:03:04.291Z,7.23
2018-07-11T14:04:07.722Z,3.80
2018-07-11T14:05:11.113Z,5.97
2018-07-11T14:06:14.700Z,5.23
2018-07-11T14:07:18.099Z,6.47
2018-07-11T14:08:21.690Z,5.73
2018-07-11T14:09:25.142Z,6.50
2018-07-11T14:10:28.601Z,13.33
2018-07-11T14:11:32.092Z,4.73
2018-07-11T14:12:35.577Z,4.70
2018-07-11T14:13:39.136Z,9.87
2018-07-11T14:14:42.582Z,7.63
2018-07-11T14:15:46.024Z,6.37
2018-07-11T14:16:49.794Z,4.63
2018-07-11T14:17:53.242Z,4.13
2018-07-11T14:18:56.714Z,7.53
2018-07-11T14:20:00.302Z,6.43
2018-07-11T14:21:03.725Z,4.70
2018-07-11T14:22:07.187Z,4.60
2018-07-11T14:23:10.637Z,4.60
2018-07-11T14:24:14.724Z,4.63
2018-07-11T14:25:19.285Z,10.80
2018-07-11T14:26:22.772Z,6.03
2018-07-11T14:27:27.456Z,5.80
2018-07-11T14:28:32.004Z,5.70
2018-07-11T14:29:35.554Z,5.53
2018-07-11T14:30:39.744Z,7.43
2018-07-11T14:31:43.177Z,8.17
2018-07-11T14:32:50.953Z,4.30